sensor_id;sensor_type;location;lat;lon;timestamp;P1;durP1;ratioP1;P2;durP2;ratioP2
4696;SDS011;2362;50.780;0.292;2023-03-01T00:00:38;43.78;;;24.73;;
4696;SDS011;2362;50.780;0.292;2023-03-01T00:03:05;37.13;;;23.35;;
4696;SDS011;2362;50.780;0.292;2023-03-01T00:05:31;50.75;;;24.75;;
4696;SDS011;2362;50.780;0.292;2023-03-01T00:07:57;43.92;;;25.25;;
4696;SDS011;2362;50.780;0.292;2023-03-01T00:10:23;47.85;;;27.67;;
4696;SDS011;2362;50.780;0.292;2023-03-01T00:12:48;52.00;;;26.48;;
4696;SDS011;2362;50.780;0.292;2023-03-01T00:15:14;42.15;;;25.50;;
4696;SDS011;2362;50.780;0.292;2023-03-01T00:17:40;43.83;;;25.42;;
4696;SDS011;2362;50.780;0.292;2023-03-01T00:20:06;45.28;;;26.38;;
4696;SDS011;2362;50.780;0.292;2023-03-01T00:22:35;51.08;;;27.10;;
4696;SDS011;2362;50.780;0.292;2023-03-01T00:25:02;45.25;;;26.90;;
4696;SDS011;2362;50.780;0.292;2023-03-01T00:27:28;50.13;;;28.80;;
4696;SDS011;2362;50.780;0.292;2023-03-01T00:29:53;51.53;;;27.92;;
4696;SDS011;2362;50.780;0.292;2023-03-01T00:32:20;45.15;;;27.83;;
4696;SDS011;2362;50.780;0.292;2023-03-01T00:34:46;48.13;;;28.65;;
4696;SDS011;2362;50.780;0.292;2023-03-01T00:37:22;46.88;;;27.42;;
4696;SDS011;2362;50.780;0.292;2023-03-01T00:39:48;57.40;;;31.45;;
4696;SDS011;2362;50.780;0.292;2023-03-01T00:42:15;58.25;;;29.90;;
4696;SDS011;2362;50.780;0.292;2023-03-01T00:44:41;53.50;;;30.35;;
4696;SDS011;2362;50.780;0.292;2023-03-01T00:47:06;50.38;;;31.20;;
4696;SDS011;2362;50.780;0.292;2023-03-01T00:49:32;51.67;;;29.88;;
4696;SDS011;2362;50.780;0.292;2023-03-01T00:51:58;65.35;;;32.90;;
4696;SDS011;2362;50.780;0.292;2023-03-01T00:54:26;71.20;;;34.20;;
4696;SDS011;2362;50.780;0.292;2023-03-01T00:56:52;54.05;;;32.50;;
4696;SDS011;2362;50.780;0.292;2023-03-01T00:59:17;58.78;;;32.55;;
4696;SDS011;2362;50.780;0.292;2023-03-01T01:01:43;55.95;;;32.60;;
4696;SDS011;2362;50.780;0.292;2023-03-01T01:04:11;54.10;;;30.80;;
4696;SDS011;2362;50.780;0.292;2023-03-01T01:06:46;59.45;;;32.35;;
4696;SDS011;2362;50.780;0.292;2023-03-01T01:09:13;60.25;;;32.53;;
4696;SDS011;2362;50.780;0.292;2023-03-01T01:11:44;58.17;;;33.90;;
4696;SDS011;2362;50.780;0.292;2023-03-01T01:14:11;65.75;;;35.58;;
4696;SDS011;2362;50.780;0.292;2023-03-01T01:16:37;62.13;;;34.72;;
4696;SDS011;2362;50.780;0.292;2023-03-01T01:19:04;65.70;;;37.15;;
4696;SDS011;2362;50.780;0.292;2023-03-01T01:21:30;60.53;;;35.72;;
4696;SDS011;2362;50.780;0.292;2023-03-01T01:23:56;62.67;;;37.35;;
4696;SDS011;2362;50.780;0.292;2023-03-01T01:26:23;64.82;;;37.25;;
4696;SDS011;2362;50.780;0.292;2023-03-01T01:28:51;61.88;;;33.25;;
4696;SDS011;2362;50.780;0.292;2023-03-01T01:31:18;69.95;;;38.00;;
4696;SDS011;2362;50.780;0.292;2023-03-01T01:33:44;64.85;;;38.00;;
4696;SDS011;2362;50.780;0.292;2023-03-01T01:36:11;59.15;;;35.08;;
4696;SDS011;2362;50.780;0.292;2023-03-01T01:38:37;82.60;;;39.75;;
4696;SDS011;2362;50.780;0.292;2023-03-01T01:41:04;67.90;;;36.90;;
4696;SDS011;2362;50.780;0.292;2023-03-01T01:43:33;66.68;;;38.72;;
4696;SDS011;2362;50.780;0.292;2023-03-01T01:46:02;73.57;;;38.33;;
4696;SDS011;2362;50.780;0.292;2023-03-01T01:48:39;68.78;;;40.30;;
4696;SDS011;2362;50.780;0.292;2023-03-01T01:51:11;68.68;;;39.58;;
4696;SDS011;2362;50.780;0.292;2023-03-01T01:53:44;73.07;;;40.97;;
4696;SDS011;2362;50.780;0.292;2023-03-01T01:56:14;73.00;;;41.35;;
4696;SDS011;2362;50.780;0.292;2023-03-01T01:58:41;68.80;;;40.13;;
4696;SDS011;2362;50.780;0.292;2023-03-01T02:01:08;80.88;;;42.97;;
4696;SDS011;2362;50.780;0.292;2023-03-01T02:03:35;75.15;;;43.00;;
4696;SDS011;2362;50.780;0.292;2023-03-01T02:06:29;68.43;;;39.38;;
4696;SDS011;2362;50.780;0.292;2023-03-01T02:09:00;66.85;;;38.70;;
4696;SDS011;2362;50.780;0.292;2023-03-01T02:14:22;75.03;;;37.17;;
4696;SDS011;2362;50.780;0.292;2023-03-01T02:16:50;71.45;;;38.15;;
4696;SDS011;2362;50.780;0.292;2023-03-01T02:19:31;72.07;;;39.22;;
4696;SDS011;2362;50.780;0.292;2023-03-01T02:24:53;62.53;;;36.35;;
4696;SDS011;2362;50.780;0.292;2023-03-01T02:30:27;61.10;;;36.35;;
4696;SDS011;2362;50.780;0.292;2023-03-01T02:32:55;59.78;;;35.95;;
4696;SDS011;2362;50.780;0.292;2023-03-01T02:35:27;58.85;;;36.03;;
4696;SDS011;2362;50.780;0.292;2023-03-01T02:37:56;58.97;;;35.53;;
4696;SDS011;2362;50.780;0.292;2023-03-01T02:40:25;59.20;;;35.53;;
4696;SDS011;2362;50.780;0.292;2023-03-01T02:42:56;72.88;;;38.85;;
4696;SDS011;2362;50.780;0.292;2023-03-01T02:45:23;60.50;;;36.92;;
4696;SDS011;2362;50.780;0.292;2023-03-01T02:47:56;62.42;;;35.83;;
4696;SDS011;2362;50.780;0.292;2023-03-01T02:53:00;65.75;;;35.22;;
4696;SDS011;2362;50.780;0.292;2023-03-01T02:55:33;56.22;;;33.70;;
4696;SDS011;2362;50.780;0.292;2023-03-01T02:57:58;59.65;;;36.50;;
4696;SDS011;2362;50.780;0.292;2023-03-01T03:00:36;60.83;;;35.65;;
4696;SDS011;2362;50.780;0.292;2023-03-01T03:03:05;50.40;;;32.70;;
4696;SDS011;2362;50.780;0.292;2023-03-01T03:05:32;59.80;;;35.63;;
4696;SDS011;2362;50.780;0.292;2023-03-01T03:07:59;57.03;;;35.85;;
4696;SDS011;2362;50.780;0.292;2023-03-01T03:10:27;59.72;;;34.30;;
4696;SDS011;2362;50.780;0.292;2023-03-01T03:12:55;66.50;;;35.70;;
4696;SDS011;2362;50.780;0.292;2023-03-01T03:15:26;57.80;;;35.20;;
4696;SDS011;2362;50.780;0.292;2023-03-01T03:17:54;63.13;;;35.75;;
4696;SDS011;2362;50.780;0.292;2023-03-01T03:20:21;61.40;;;36.28;;
4696;SDS011;2362;50.780;0.292;2023-03-01T03:22:50;59.50;;;35.78;;
4696;SDS011;2362;50.780;0.292;2023-03-01T03:25:18;59.05;;;34.53;;
4696;SDS011;2362;50.780;0.292;2023-03-01T03:27:46;55.13;;;33.70;;
4696;SDS011;2362;50.780;0.292;2023-03-01T03:30:14;59.83;;;36.95;;
4696;SDS011;2362;50.780;0.292;2023-03-01T03:32:42;65.00;;;37.33;;
4696;SDS011;2362;50.780;0.292;2023-03-01T03:35:23;59.50;;;36.17;;
4696;SDS011;2362;50.780;0.292;2023-03-01T03:38:01;62.00;;;35.58;;
4696;SDS011;2362;50.780;0.292;2023-03-01T03:40:33;64.03;;;36.85;;
4696;SDS011;2362;50.780;0.292;2023-03-01T03:43:07;72.45;;;38.40;;
4696;SDS011;2362;50.780;0.292;2023-03-01T03:45:51;61.30;;;37.55;;
4696;SDS011;2362;50.780;0.292;2023-03-01T03:48:19;63.03;;;36.53;;
4696;SDS011;2362;50.780;0.292;2023-03-01T03:50:49;73.40;;;38.22;;
4696;SDS011;2362;50.780;0.292;2023-03-01T03:53:16;71.38;;;39.45;;
4696;SDS011;2362;50.780;0.292;2023-03-01T03:55:42;65.07;;;37.15;;
4696;SDS011;2362;50.780;0.292;2023-03-01T03:58:09;61.03;;;36.63;;
4696;SDS011;2362;50.780;0.292;2023-03-01T04:00:40;70.05;;;39.45;;
4696;SDS011;2362;50.780;0.292;2023-03-01T04:03:08;63.00;;;38.30;;
4696;SDS011;2362;50.780;0.292;2023-03-01T04:05:34;66.72;;;38.40;;
4696;SDS011;2362;50.780;0.292;2023-03-01T04:08:01;69.05;;;38.83;;
4696;SDS011;2362;50.780;0.292;2023-03-01T04:10:31;69.97;;;41.33;;
4696;SDS011;2362;50.780;0.292;2023-03-01T04:12:58;72.05;;;40.88;;
4696;SDS011;2362;50.780;0.292;2023-03-01T04:15:25;63.88;;;39.78;;
4696;SDS011;2362;50.780;0.292;2023-03-01T04:17:52;74.63;;;42.67;;
4696;SDS011;2362;50.780;0.292;2023-03-01T04:20:23;69.68;;;42.08;;
4696;SDS011;2362;50.780;0.292;2023-03-01T04:23:00;70.03;;;40.13;;
4696;SDS011;2362;50.780;0.292;2023-03-01T04:25:39;77.55;;;40.10;;
4696;SDS011;2362;50.780;0.292;2023-03-01T04:28:06;83.93;;;43.95;;
4696;SDS011;2362;50.780;0.292;2023-03-01T04:30:33;72.90;;;41.78;;
4696;SDS011;2362;50.780;0.292;2023-03-01T04:33:07;74.03;;;43.30;;
4696;SDS011;2362;50.780;0.292;2023-03-01T04:35:34;86.43;;;43.50;;
4696;SDS011;2362;50.780;0.292;2023-03-01T04:38:01;75.13;;;44.70;;
4696;SDS011;2362;50.780;0.292;2023-03-01T04:40:27;84.07;;;43.78;;
4696;SDS011;2362;50.780;0.292;2023-03-01T04:42:52;72.13;;;41.97;;
4696;SDS011;2362;50.780;0.292;2023-03-01T04:45:18;75.03;;;43.40;;
4696;SDS011;2362;50.780;0.292;2023-03-01T04:47:45;80.20;;;43.63;;
4696;SDS011;2362;50.780;0.292;2023-03-01T04:50:12;74.90;;;43.00;;
4696;SDS011;2362;50.780;0.292;2023-03-01T04:52:43;78.70;;;44.22;;
4696;SDS011;2362;50.780;0.292;2023-03-01T04:55:09;75.85;;;42.35;;
4696;SDS011;2362;50.780;0.292;2023-03-01T04:57:35;79.53;;;44.60;;
4696;SDS011;2362;50.780;0.292;2023-03-01T05:00:01;86.53;;;44.50;;
4696;SDS011;2362;50.780;0.292;2023-03-01T05:02:45;79.72;;;43.33;;
4696;SDS011;2362;50.780;0.292;2023-03-01T05:05:22;76.13;;;42.05;;
4696;SDS011;2362;50.780;0.292;2023-03-01T05:07:53;82.68;;;45.05;;
4696;SDS011;2362;50.780;0.292;2023-03-01T05:10:23;80.10;;;44.60;;
4696;SDS011;2362;50.780;0.292;2023-03-01T05:12:49;77.65;;;45.95;;
4696;SDS011;2362;50.780;0.292;2023-03-01T05:15:17;80.53;;;43.03;;
4696;SDS011;2362;50.780;0.292;2023-03-01T05:17:43;89.15;;;45.55;;
4696;SDS011;2362;50.780;0.292;2023-03-01T05:20:09;73.00;;;40.22;;
4696;SDS011;2362;50.780;0.292;2023-03-01T05:22:35;75.93;;;44.28;;
4696;SDS011;2362;50.780;0.292;2023-03-01T05:25:01;75.50;;;42.58;;
4696;SDS011;2362;50.780;0.292;2023-03-01T05:27:28;82.65;;;46.50;;
4696;SDS011;2362;50.780;0.292;2023-03-01T05:29:54;81.10;;;44.58;;
4696;SDS011;2362;50.780;0.292;2023-03-01T05:32:20;87.03;;;44.65;;
4696;SDS011;2362;50.780;0.292;2023-03-01T05:34:46;76.00;;;41.78;;
4696;SDS011;2362;50.780;0.292;2023-03-01T05:37:12;85.72;;;43.38;;
4696;SDS011;2362;50.780;0.292;2023-03-01T05:39:38;85.05;;;44.83;;
4696;SDS011;2362;50.780;0.292;2023-03-01T05:42:04;84.80;;;44.75;;
4696;SDS011;2362;50.780;0.292;2023-03-01T05:44:30;82.32;;;43.42;;
4696;SDS011;2362;50.780;0.292;2023-03-01T05:46:55;85.65;;;43.88;;
4696;SDS011;2362;50.780;0.292;2023-03-01T05:49:21;78.50;;;44.55;;
4696;SDS011;2362;50.780;0.292;2023-03-01T05:51:51;80.25;;;43.22;;
4696;SDS011;2362;50.780;0.292;2023-03-01T05:54:18;77.22;;;41.13;;
4696;SDS011;2362;50.780;0.292;2023-03-01T05:56:45;80.10;;;41.38;;
4696;SDS011;2362;50.780;0.292;2023-03-01T05:59:11;75.65;;;40.15;;
4696;SDS011;2362;50.780;0.292;2023-03-01T06:01:38;75.75;;;40.63;;
4696;SDS011;2362;50.780;0.292;2023-03-01T06:04:04;74.38;;;41.78;;
4696;SDS011;2362;50.780;0.292;2023-03-01T06:06:34;77.30;;;40.40;;
4696;SDS011;2362;50.780;0.292;2023-03-01T06:09:02;74.80;;;39.90;;
4696;SDS011;2362;50.780;0.292;2023-03-01T06:11:29;80.45;;;42.15;;
4696;SDS011;2362;50.780;0.292;2023-03-01T06:13:54;78.85;;;41.70;;
4696;SDS011;2362;50.780;0.292;2023-03-01T06:16:20;87.35;;;41.70;;
4696;SDS011;2362;50.780;0.292;2023-03-01T06:18:45;75.82;;;38.78;;
4696;SDS011;2362;50.780;0.292;2023-03-01T06:21:11;83.45;;;41.95;;
4696;SDS011;2362;50.780;0.292;2023-03-01T06:23:37;92.10;;;39.10;;
4696;SDS011;2362;50.780;0.292;2023-03-01T06:26:06;78.03;;;41.83;;
4696;SDS011;2362;50.780;0.292;2023-03-01T06:28:33;76.05;;;39.45;;
4696;SDS011;2362;50.780;0.292;2023-03-01T06:30:59;83.60;;;41.88;;
4696;SDS011;2362;50.780;0.292;2023-03-01T06:33:25;72.63;;;39.30;;
4696;SDS011;2362;50.780;0.292;2023-03-01T06:35:51;74.13;;;38.72;;
4696;SDS011;2362;50.780;0.292;2023-03-01T06:38:19;74.50;;;39.70;;
4696;SDS011;2362;50.780;0.292;2023-03-01T06:40:45;77.82;;;38.08;;
4696;SDS011;2362;50.780;0.292;2023-03-01T06:43:16;77.10;;;37.63;;
4696;SDS011;2362;50.780;0.292;2023-03-01T06:45:42;64.50;;;36.08;;
4696;SDS011;2362;50.780;0.292;2023-03-01T06:48:08;62.15;;;35.17;;
4696;SDS011;2362;50.780;0.292;2023-03-01T06:50:34;68.78;;;34.10;;
4696;SDS011;2362;50.780;0.292;2023-03-01T06:53:00;73.03;;;33.63;;
4696;SDS011;2362;50.780;0.292;2023-03-01T06:55:26;64.65;;;32.92;;
4696;SDS011;2362;50.780;0.292;2023-03-01T06:57:58;61.13;;;33.88;;
4696;SDS011;2362;50.780;0.292;2023-03-01T07:00:25;71.85;;;31.10;;
4696;SDS011;2362;50.780;0.292;2023-03-01T07:02:52;61.92;;;32.35;;
4696;SDS011;2362;50.780;0.292;2023-03-01T07:05:18;59.80;;;32.80;;
4696;SDS011;2362;50.780;0.292;2023-03-01T07:07:44;61.35;;;33.95;;
4696;SDS011;2362;50.780;0.292;2023-03-01T07:10:10;76.00;;;36.00;;
4696;SDS011;2362;50.780;0.292;2023-03-01T07:12:36;69.38;;;34.70;;
4696;SDS011;2362;50.780;0.292;2023-03-01T07:15:02;76.32;;;34.15;;
4696;SDS011;2362;50.780;0.292;2023-03-01T07:17:28;70.40;;;34.45;;
4696;SDS011;2362;50.780;0.292;2023-03-01T07:19:54;60.95;;;32.35;;
4696;SDS011;2362;50.780;0.292;2023-03-01T07:22:20;60.95;;;31.67;;
4696;SDS011;2362;50.780;0.292;2023-03-01T07:24:45;70.28;;;35.42;;
4696;SDS011;2362;50.780;0.292;2023-03-01T07:27:11;66.90;;;32.88;;
4696;SDS011;2362;50.780;0.292;2023-03-01T07:29:36;64.47;;;33.13;;
4696;SDS011;2362;50.780;0.292;2023-03-01T07:32:03;67.20;;;32.17;;
4696;SDS011;2362;50.780;0.292;2023-03-01T07:34:29;61.15;;;30.65;;
4696;SDS011;2362;50.780;0.292;2023-03-01T07:36:55;66.30;;;31.08;;
4696;SDS011;2362;50.780;0.292;2023-03-01T07:39:21;73.38;;;31.85;;
4696;SDS011;2362;50.780;0.292;2023-03-01T07:41:48;61.58;;;32.75;;
4696;SDS011;2362;50.780;0.292;2023-03-01T07:44:14;77.28;;;32.20;;
4696;SDS011;2362;50.780;0.292;2023-03-01T07:46:41;64.70;;;29.60;;
4696;SDS011;2362;50.780;0.292;2023-03-01T07:49:07;62.05;;;29.25;;
4696;SDS011;2362;50.780;0.292;2023-03-01T07:51:33;59.20;;;30.05;;
4696;SDS011;2362;50.780;0.292;2023-03-01T07:53:58;62.47;;;31.55;;
4696;SDS011;2362;50.780;0.292;2023-03-01T07:56:24;63.28;;;30.73;;
4696;SDS011;2362;50.780;0.292;2023-03-01T07:58:50;56.25;;;31.08;;
4696;SDS011;2362;50.780;0.292;2023-03-01T08:01:16;53.97;;;29.15;;
4696;SDS011;2362;50.780;0.292;2023-03-01T08:03:43;51.53;;;26.73;;
4696;SDS011;2362;50.780;0.292;2023-03-01T08:06:10;56.20;;;27.52;;
4696;SDS011;2362;50.780;0.292;2023-03-01T08:08:37;50.00;;;25.88;;
4696;SDS011;2362;50.780;0.292;2023-03-01T08:11:03;59.10;;;26.63;;
4696;SDS011;2362;50.780;0.292;2023-03-01T08:13:30;48.95;;;24.55;;
4696;SDS011;2362;50.780;0.292;2023-03-01T08:16:00;42.45;;;25.13;;
4696;SDS011;2362;50.780;0.292;2023-03-01T08:18:28;46.40;;;24.55;;
4696;SDS011;2362;50.780;0.292;2023-03-01T08:20:53;45.80;;;22.75;;
4696;SDS011;2362;50.780;0.292;2023-03-01T08:23:19;47.42;;;22.75;;
4696;SDS011;2362;50.780;0.292;2023-03-01T08:25:45;39.33;;;22.83;;
4696;SDS011;2362;50.780;0.292;2023-03-01T08:28:10;52.22;;;24.20;;
4696;SDS011;2362;50.780;0.292;2023-03-01T08:30:36;43.45;;;22.85;;
4696;SDS011;2362;50.780;0.292;2023-03-01T08:33:01;41.95;;;22.45;;
4696;SDS011;2362;50.780;0.292;2023-03-01T08:35:27;38.78;;;21.23;;
4696;SDS011;2362;50.780;0.292;2023-03-01T08:37:52;37.05;;;21.35;;
4696;SDS011;2362;50.780;0.292;2023-03-01T08:40:18;42.15;;;21.35;;
4696;SDS011;2362;50.780;0.292;2023-03-01T08:42:44;34.50;;;20.38;;
4696;SDS011;2362;50.780;0.292;2023-03-01T08:45:10;41.28;;;20.88;;
4696;SDS011;2362;50.780;0.292;2023-03-01T08:47:36;32.63;;;18.98;;
4696;SDS011;2362;50.780;0.292;2023-03-01T08:50:03;34.17;;;20.48;;
4696;SDS011;2362;50.780;0.292;2023-03-01T08:52:29;35.05;;;19.23;;
4696;SDS011;2362;50.780;0.292;2023-03-01T08:54:55;34.17;;;18.45;;
4696;SDS011;2362;50.780;0.292;2023-03-01T08:57:21;32.40;;;18.90;;
4696;SDS011;2362;50.780;0.292;2023-03-01T08:59:47;36.42;;;18.30;;
4696;SDS011;2362;50.780;0.292;2023-03-01T09:02:13;35.78;;;17.65;;
4696;SDS011;2362;50.780;0.292;2023-03-01T09:04:41;39.17;;;18.88;;
4696;SDS011;2362;50.780;0.292;2023-03-01T09:07:07;29.00;;;17.40;;
4696;SDS011;2362;50.780;0.292;2023-03-01T09:09:34;29.83;;;17.67;;
4696;SDS011;2362;50.780;0.292;2023-03-01T09:11:59;37.65;;;18.13;;
4696;SDS011;2362;50.780;0.292;2023-03-01T09:14:26;32.00;;;17.65;;
4696;SDS011;2362;50.780;0.292;2023-03-01T09:16:52;29.88;;;17.88;;
4696;SDS011;2362;50.780;0.292;2023-03-01T09:19:18;30.67;;;16.52;;
4696;SDS011;2362;50.780;0.292;2023-03-01T09:21:43;30.50;;;18.73;;
4696;SDS011;2362;50.780;0.292;2023-03-01T09:24:17;32.28;;;16.77;;
4696;SDS011;2362;50.780;0.292;2023-03-01T09:26:44;33.67;;;16.50;;
4696;SDS011;2362;50.780;0.292;2023-03-01T09:29:13;33.33;;;17.02;;
4696;SDS011;2362;50.780;0.292;2023-03-01T09:31:40;31.38;;;16.48;;
4696;SDS011;2362;50.780;0.292;2023-03-01T09:34:06;32.70;;;17.50;;
4696;SDS011;2362;50.780;0.292;2023-03-01T09:36:58;26.15;;;15.57;;
4696;SDS011;2362;50.780;0.292;2023-03-01T09:39:27;27.88;;;17.27;;
4696;SDS011;2362;50.780;0.292;2023-03-01T09:41:59;32.58;;;16.45;;
4696;SDS011;2362;50.780;0.292;2023-03-01T09:44:42;30.15;;;16.75;;
4696;SDS011;2362;50.780;0.292;2023-03-01T09:47:21;31.23;;;15.70;;
4696;SDS011;2362;50.780;0.292;2023-03-01T09:50:00;24.83;;;14.90;;
4696;SDS011;2362;50.780;0.292;2023-03-01T09:52:54;33.15;;;14.35;;
4696;SDS011;2362;50.780;0.292;2023-03-01T10:01:10;28.42;;;16.45;;
4696;SDS011;2362;50.780;0.292;2023-03-01T10:06:27;29.65;;;16.38;;
4696;SDS011;2362;50.780;0.292;2023-03-01T10:08:58;29.83;;;15.60;;
4696;SDS011;2362;50.780;0.292;2023-03-01T10:11:39;26.00;;;14.77;;
4696;SDS011;2362;50.780;0.292;2023-03-01T10:17:08;24.75;;;14.32;;
4696;SDS011;2362;50.780;0.292;2023-03-01T10:19:45;28.10;;;16.13;;
4696;SDS011;2362;50.780;0.292;2023-03-01T10:24:59;19.80;;;11.23;;
4696;SDS011;2362;50.780;0.292;2023-03-01T10:32:48;16.55;;;9.95;;
4696;SDS011;2362;50.780;0.292;2023-03-01T10:35:17;23.30;;;9.90;;
4696;SDS011;2362;50.780;0.292;2023-03-01T10:38:05;18.52;;;9.65;;
4696;SDS011;2362;50.780;0.292;2023-03-01T10:40:32;21.05;;;10.02;;
4696;SDS011;2362;50.780;0.292;2023-03-01T10:43:00;17.30;;;10.02;;
4696;SDS011;2362;50.780;0.292;2023-03-01T10:45:33;17.58;;;8.38;;
4696;SDS011;2362;50.780;0.292;2023-03-01T10:48:04;12.98;;;8.85;;
4696;SDS011;2362;50.780;0.292;2023-03-01T10:50:30;17.58;;;8.82;;
4696;SDS011;2362;50.780;0.292;2023-03-01T10:53:03;20.52;;;8.98;;
4696;SDS011;2362;50.780;0.292;2023-03-01T10:55:34;20.08;;;7.70;;
4696;SDS011;2362;50.780;0.292;2023-03-01T10:58:15;14.88;;;7.53;;
4696;SDS011;2362;50.780;0.292;2023-03-01T11:03:25;14.48;;;7.72;;
4696;SDS011;2362;50.780;0.292;2023-03-01T11:06:39;21.27;;;8.10;;
4696;SDS011;2362;50.780;0.292;2023-03-01T11:08:41;11.07;;;6.53;;
4696;SDS011;2362;50.780;0.292;2023-03-01T11:13:57;15.90;;;7.93;;
4696;SDS011;2362;50.780;0.292;2023-03-01T11:16:29;16.10;;;7.55;;
4696;SDS011;2362;50.780;0.292;2023-03-01T11:24:15;18.42;;;6.22;;
4696;SDS011;2362;50.780;0.292;2023-03-01T11:26:44;14.27;;;4.93;;
4696;SDS011;2362;50.780;0.292;2023-03-01T11:29:58;10.45;;;5.50;;
4696;SDS011;2362;50.780;0.292;2023-03-01T11:32:07;16.38;;;6.55;;
4696;SDS011;2362;50.780;0.292;2023-03-01T11:34:53;12.85;;;5.40;;
4696;SDS011;2362;50.780;0.292;2023-03-01T11:40:21;7.05;;;4.07;;
4696;SDS011;2362;50.780;0.292;2023-03-01T11:45:24;15.95;;;4.70;;
4696;SDS011;2362;50.780;0.292;2023-03-01T11:47:59;12.95;;;4.85;;
4696;SDS011;2362;50.780;0.292;2023-03-01T11:51:14;13.10;;;4.65;;
4696;SDS011;2362;50.780;0.292;2023-03-01T11:56:48;7.93;;;2.97;;
4696;SDS011;2362;50.780;0.292;2023-03-01T11:59:27;7.00;;;3.22;;
4696;SDS011;2362;50.780;0.292;2023-03-01T12:02:14;6.07;;;2.78;;
4696;SDS011;2362;50.780;0.292;2023-03-01T12:05:58;7.47;;;2.42;;
4696;SDS011;2362;50.780;0.292;2023-03-01T12:17:06;3.08;;;1.33;;
4696;SDS011;2362;50.780;0.292;2023-03-01T12:22:57;10.27;;;1.35;;
4696;SDS011;2362;50.780;0.292;2023-03-01T12:25:33;3.33;;;0.95;;
4696;SDS011;2362;50.780;0.292;2023-03-01T12:30:56;8.00;;;1.65;;
4696;SDS011;2362;50.780;0.292;2023-03-01T12:49:45;10.18;;;1.83;;
4696;SDS011;2362;50.780;0.292;2023-03-01T12:55:31;12.32;;;2.50;;
4696;SDS011;2362;50.780;0.292;2023-03-01T13:09:23;10.93;;;2.05;;
4696;SDS011;2362;50.780;0.292;2023-03-01T13:11:56;16.48;;;2.65;;
4696;SDS011;2362;50.780;0.292;2023-03-01T13:16:48;13.38;;;2.45;;
4696;SDS011;2362;50.780;0.292;2023-03-01T13:19:18;15.20;;;2.55;;
4696;SDS011;2362;50.780;0.292;2023-03-01T13:21:49;14.35;;;2.38;;
4696;SDS011;2362;50.780;0.292;2023-03-01T13:24:29;11.10;;;2.15;;
4696;SDS011;2362;50.780;0.292;2023-03-01T13:32:19;16.65;;;3.17;;
4696;SDS011;2362;50.780;0.292;2023-03-01T13:35:01;14.48;;;2.35;;
4696;SDS011;2362;50.780;0.292;2023-03-01T13:37:31;9.52;;;2.28;;
4696;SDS011;2362;50.780;0.292;2023-03-01T13:39:59;7.40;;;2.33;;
4696;SDS011;2362;50.780;0.292;2023-03-01T13:45:19;15.88;;;2.78;;
4696;SDS011;2362;50.780;0.292;2023-03-01T13:47:46;18.80;;;2.13;;
4696;SDS011;2362;50.780;0.292;2023-03-01T13:50:18;13.40;;;2.80;;
4696;SDS011;2362;50.780;0.292;2023-03-01T13:53:00;9.50;;;2.33;;
4696;SDS011;2362;50.780;0.292;2023-03-01T13:57:57;13.23;;;1.60;;
4696;SDS011;2362;50.780;0.292;2023-03-01T14:08:32;8.07;;;2.05;;
4696;SDS011;2362;50.780;0.292;2023-03-01T14:13:58;10.88;;;2.42;;
4696;SDS011;2362;50.780;0.292;2023-03-01T14:16:35;9.52;;;1.95;;
4696;SDS011;2362;50.780;0.292;2023-03-01T14:19:24;11.52;;;2.97;;
4696;SDS011;2362;50.780;0.292;2023-03-01T14:21:58;9.00;;;2.80;;
4696;SDS011;2362;50.780;0.292;2023-03-01T14:24:38;5.35;;;1.63;;
4696;SDS011;2362;50.780;0.292;2023-03-01T14:27:12;9.20;;;2.10;;
4696;SDS011;2362;50.780;0.292;2023-03-01T14:29:39;5.32;;;1.55;;
4696;SDS011;2362;50.780;0.292;2023-03-01T14:32:19;3.55;;;1.58;;
4696;SDS011;2362;50.780;0.292;2023-03-01T14:34:48;14.00;;;2.20;;
4696;SDS011;2362;50.780;0.292;2023-03-01T14:37:31;5.25;;;2.10;;
4696;SDS011;2362;50.780;0.292;2023-03-01T14:39:59;6.70;;;1.80;;
4696;SDS011;2362;50.780;0.292;2023-03-01T14:42:31;7.75;;;1.83;;
4696;SDS011;2362;50.780;0.292;2023-03-01T14:45:00;6.50;;;1.80;;
4696;SDS011;2362;50.780;0.292;2023-03-01T14:47:34;5.18;;;1.40;;
4696;SDS011;2362;50.780;0.292;2023-03-01T14:50:02;11.60;;;1.95;;
4696;SDS011;2362;50.780;0.292;2023-03-01T14:52:36;6.63;;;1.60;;
4696;SDS011;2362;50.780;0.292;2023-03-01T14:55:05;3.70;;;1.48;;
4696;SDS011;2362;50.780;0.292;2023-03-01T14:57:38;12.95;;;2.22;;
4696;SDS011;2362;50.780;0.292;2023-03-01T15:00:10;2.42;;;1.45;;
4696;SDS011;2362;50.780;0.292;2023-03-01T15:02:44;4.22;;;1.55;;
4696;SDS011;2362;50.780;0.292;2023-03-01T15:05:13;8.27;;;1.88;;
4696;SDS011;2362;50.780;0.292;2023-03-01T15:07:40;7.07;;;1.30;;
4696;SDS011;2362;50.780;0.292;2023-03-01T15:10:24;15.02;;;1.65;;
4696;SDS011;2362;50.780;0.292;2023-03-01T15:13:09;12.07;;;2.10;;
4696;SDS011;2362;50.780;0.292;2023-03-01T15:15:46;9.10;;;1.40;;
4696;SDS011;2362;50.780;0.292;2023-03-01T15:18:19;10.73;;;1.55;;
4696;SDS011;2362;50.780;0.292;2023-03-01T15:20:47;8.10;;;2.28;;
4696;SDS011;2362;50.780;0.292;2023-03-01T15:23:28;7.13;;;1.48;;
4696;SDS011;2362;50.780;0.292;2023-03-01T15:25:55;9.02;;;1.70;;
4696;SDS011;2362;50.780;0.292;2023-03-01T15:28:42;6.00;;;1.35;;
4696;SDS011;2362;50.780;0.292;2023-03-01T15:31:23;5.50;;;1.38;;
4696;SDS011;2362;50.780;0.292;2023-03-01T15:33:51;6.85;;;1.20;;
4696;SDS011;2362;50.780;0.292;2023-03-01T15:39:02;8.63;;;1.67;;
4696;SDS011;2362;50.780;0.292;2023-03-01T15:41:45;15.65;;;1.40;;
4696;SDS011;2362;50.780;0.292;2023-03-01T15:44:31;6.30;;;1.50;;
4696;SDS011;2362;50.780;0.292;2023-03-01T15:46:59;8.10;;;1.30;;
4696;SDS011;2362;50.780;0.292;2023-03-01T15:49:39;7.65;;;1.65;;
4696;SDS011;2362;50.780;0.292;2023-03-01T15:52:15;6.72;;;1.80;;
4696;SDS011;2362;50.780;0.292;2023-03-01T15:55:04;3.85;;;1.10;;
4696;SDS011;2362;50.780;0.292;2023-03-01T15:57:38;17.30;;;1.58;;
4696;SDS011;2362;50.780;0.292;2023-03-01T16:00:04;4.47;;;1.13;;
4696;SDS011;2362;50.780;0.292;2023-03-01T16:02:36;9.10;;;1.15;;
4696;SDS011;2362;50.780;0.292;2023-03-01T16:05:03;12.32;;;1.30;;
4696;SDS011;2362;50.780;0.292;2023-03-01T16:07:28;11.25;;;2.58;;
4696;SDS011;2362;50.780;0.292;2023-03-01T16:09:56;5.47;;;1.92;;
4696;SDS011;2362;50.780;0.292;2023-03-01T16:12:22;4.68;;;1.67;;
4696;SDS011;2362;50.780;0.292;2023-03-01T16:14:49;6.28;;;2.08;;
4696;SDS011;2362;50.780;0.292;2023-03-01T16:17:15;8.73;;;1.27;;
4696;SDS011;2362;50.780;0.292;2023-03-01T16:19:40;5.45;;;1.52;;
4696;SDS011;2362;50.780;0.292;2023-03-01T16:22:06;5.82;;;1.77;;
4696;SDS011;2362;50.780;0.292;2023-03-01T16:24:34;5.35;;;1.38;;
4696;SDS011;2362;50.780;0.292;2023-03-01T16:27:01;9.07;;;1.70;;
4696;SDS011;2362;50.780;0.292;2023-03-01T16:29:27;12.15;;;1.77;;
4696;SDS011;2362;50.780;0.292;2023-03-01T16:31:54;10.02;;;1.95;;
4696;SDS011;2362;50.780;0.292;2023-03-01T16:34:20;6.57;;;1.45;;
4696;SDS011;2362;50.780;0.292;2023-03-01T16:36:46;7.38;;;1.67;;
4696;SDS011;2362;50.780;0.292;2023-03-01T16:39:12;5.60;;;1.63;;
4696;SDS011;2362;50.780;0.292;2023-03-01T16:41:38;7.82;;;1.88;;
4696;SDS011;2362;50.780;0.292;2023-03-01T16:44:04;5.25;;;1.55;;
4696;SDS011;2362;50.780;0.292;2023-03-01T16:46:29;11.02;;;2.38;;
4696;SDS011;2362;50.780;0.292;2023-03-01T16:48:55;12.02;;;3.78;;
4696;SDS011;2362;50.780;0.292;2023-03-01T16:51:22;10.23;;;2.20;;
4696;SDS011;2362;50.780;0.292;2023-03-01T16:53:48;8.85;;;2.70;;
4696;SDS011;2362;50.780;0.292;2023-03-01T16:56:14;11.52;;;2.40;;
4696;SDS011;2362;50.780;0.292;2023-03-01T16:58:41;5.63;;;1.77;;
4696;SDS011;2362;50.780;0.292;2023-03-01T17:01:14;15.50;;;1.65;;
4696;SDS011;2362;50.780;0.292;2023-03-01T17:03:42;6.78;;;1.63;;
4696;SDS011;2362;50.780;0.292;2023-03-01T17:06:11;8.18;;;2.28;;
4696;SDS011;2362;50.780;0.292;2023-03-01T17:08:38;12.07;;;3.00;;
4696;SDS011;2362;50.780;0.292;2023-03-01T17:11:13;9.02;;;2.08;;
4696;SDS011;2362;50.780;0.292;2023-03-01T17:13:41;6.63;;;1.92;;